Wellington, Florida
Current Conditions -  °F | °C
As of 12:11 PM on Tuesday 21 Oct 2014 (Local Time) from KPBI Reporting Station
Thunderstorm Thunderstorm  
Wind Chill: 77°   Ceiling: 2000
Heat Index: 78°   Visibility: 4mi
Dew Point: 74°   Wind: 12mph
Humidity: 90%   Direction: 60°ENE
Pressure: 29.94"   Gusts: NA
Location:  26.64°N, 80.27°W
Report Text: KPBI 211611Z 06010KT 4SM R10L/2200VP6000FT TSRA BR SCT013 BKN020CB OVC110 25/23 A2994 RMK AO2 TSB08 VIS NW-N 1 FRQ LTGICCC OHD-NE TS OHD-NE MOV N CB ALQDS MOV N P0023 T02500233 $
Loading
Personal Weather Stations






























Interactive Weather Map
Tropical Storm Tracking
New forecast layout! Learn more

10-Day Weather Forecast

Advertisements
Track Severe Weather on mobile